sensor_id;sensor_type;location;lat;lon;timestamp;P1;durP1;ratioP1;P2;durP2;ratioP2
23044;SDS011;11690;51.716;23.066;2023-12-14T00:01:15;51.40;;;20.77;;
23044;SDS011;11690;51.716;23.066;2023-12-14T00:03:42;52.53;;;21.03;;
23044;SDS011;11690;51.716;23.066;2023-12-14T00:06:13;43.77;;;19.70;;
23044;SDS011;11690;51.716;23.066;2023-12-14T00:08:40;49.07;;;20.20;;
23044;SDS011;11690;51.716;23.066;2023-12-14T00:11:08;55.23;;;20.37;;
23044;SDS011;11690;51.716;23.066;2023-12-14T00:13:37;57.60;;;20.43;;
23044;SDS011;11690;51.716;23.066;2023-12-14T00:16:05;53.80;;;19.97;;
23044;SDS011;11690;51.716;23.066;2023-12-14T00:18:32;50.07;;;19.93;;
23044;SDS011;11690;51.716;23.066;2023-12-14T00:21:00;57.13;;;20.80;;
23044;SDS011;11690;51.716;23.066;2023-12-14T00:23:27;53.30;;;20.00;;
23044;SDS011;11690;51.716;23.066;2023-12-14T00:25:54;54.43;;;18.63;;
23044;SDS011;11690;51.716;23.066;2023-12-14T00:28:21;56.53;;;19.37;;
23044;SDS011;11690;51.716;23.066;2023-12-14T00:30:52;58.07;;;21.17;;
23044;SDS011;11690;51.716;23.066;2023-12-14T00:33:19;53.03;;;22.17;;
23044;SDS011;11690;51.716;23.066;2023-12-14T00:35:46;54.63;;;20.30;;
23044;SDS011;11690;51.716;23.066;2023-12-14T00:38:13;63.27;;;20.77;;
23044;SDS011;11690;51.716;23.066;2023-12-14T00:40:41;61.10;;;21.03;;
23044;SDS011;11690;51.716;23.066;2023-12-14T00:43:08;61.30;;;21.90;;
23044;SDS011;11690;51.716;23.066;2023-12-14T00:45:36;53.83;;;20.57;;
23044;SDS011;11690;51.716;23.066;2023-12-14T00:48:03;60.63;;;21.07;;
23044;SDS011;11690;51.716;23.066;2023-12-14T00:50:30;58.90;;;20.03;;
23044;SDS011;11690;51.716;23.066;2023-12-14T00:52:57;68.63;;;21.37;;
23044;SDS011;11690;51.716;23.066;2023-12-14T00:55:24;64.80;;;21.50;;
23044;SDS011;11690;51.716;23.066;2023-12-14T00:57:51;58.97;;;19.60;;
23044;SDS011;11690;51.716;23.066;2023-12-14T01:00:19;58.90;;;20.20;;
23044;SDS011;11690;51.716;23.066;2023-12-14T01:02:46;61.17;;;20.33;;
23044;SDS011;11690;51.716;23.066;2023-12-14T01:05:13;72.10;;;20.67;;
23044;SDS011;11690;51.716;23.066;2023-12-14T01:07:40;60.70;;;20.43;;
23044;SDS011;11690;51.716;23.066;2023-12-14T01:10:07;60.77;;;20.27;;
23044;SDS011;11690;51.716;23.066;2023-12-14T01:12:35;61.93;;;21.17;;
23044;SDS011;11690;51.716;23.066;2023-12-14T01:15:02;54.70;;;18.77;;
23044;SDS011;11690;51.716;23.066;2023-12-14T01:17:30;54.53;;;19.37;;
23044;SDS011;11690;51.716;23.066;2023-12-14T01:19:57;55.20;;;18.57;;
23044;SDS011;11690;51.716;23.066;2023-12-14T01:22:24;56.80;;;19.63;;
23044;SDS011;11690;51.716;23.066;2023-12-14T01:24:51;60.50;;;20.70;;
23044;SDS011;11690;51.716;23.066;2023-12-14T01:27:18;55.97;;;20.40;;
23044;SDS011;11690;51.716;23.066;2023-12-14T01:29:45;58.23;;;20.20;;
23044;SDS011;11690;51.716;23.066;2023-12-14T01:32:12;52.57;;;18.30;;
23044;SDS011;11690;51.716;23.066;2023-12-14T01:34:39;51.20;;;16.97;;
23044;SDS011;11690;51.716;23.066;2023-12-14T01:37:06;56.33;;;19.83;;
23044;SDS011;11690;51.716;23.066;2023-12-14T01:39:34;54.73;;;18.77;;
23044;SDS011;11690;51.716;23.066;2023-12-14T01:42:01;48.87;;;17.43;;
23044;SDS011;11690;51.716;23.066;2023-12-14T01:44:28;50.73;;;16.70;;
23044;SDS011;11690;51.716;23.066;2023-12-14T01:46:55;46.93;;;16.97;;
23044;SDS011;11690;51.716;23.066;2023-12-14T01:49:22;52.80;;;18.30;;
23044;SDS011;11690;51.716;23.066;2023-12-14T01:51:49;45.57;;;16.20;;
23044;SDS011;11690;51.716;23.066;2023-12-14T01:54:16;44.97;;;17.90;;
23044;SDS011;11690;51.716;23.066;2023-12-14T01:56:43;51.07;;;16.97;;
23044;SDS011;11690;51.716;23.066;2023-12-14T01:59:10;50.17;;;15.33;;
23044;SDS011;11690;51.716;23.066;2023-12-14T02:01:42;53.77;;;16.87;;
23044;SDS011;11690;51.716;23.066;2023-12-14T02:04:10;51.60;;;16.83;;
23044;SDS011;11690;51.716;23.066;2023-12-14T02:06:38;46.60;;;16.93;;
23044;SDS011;11690;51.716;23.066;2023-12-14T02:09:06;58.83;;;17.70;;
23044;SDS011;11690;51.716;23.066;2023-12-14T02:11:33;49.57;;;16.40;;
23044;SDS011;11690;51.716;23.066;2023-12-14T02:14:04;53.30;;;17.43;;
23044;SDS011;11690;51.716;23.066;2023-12-14T02:16:32;43.20;;;16.70;;
23044;SDS011;11690;51.716;23.066;2023-12-14T02:18:59;56.73;;;18.20;;
23044;SDS011;11690;51.716;23.066;2023-12-14T02:21:26;56.33;;;19.03;;
23044;SDS011;11690;51.716;23.066;2023-12-14T02:23:54;47.30;;;16.87;;
23044;SDS011;11690;51.716;23.066;2023-12-14T02:26:21;46.97;;;16.70;;
23044;SDS011;11690;51.716;23.066;2023-12-14T02:28:48;46.37;;;16.57;;
23044;SDS011;11690;51.716;23.066;2023-12-14T02:31:15;46.67;;;16.17;;
23044;SDS011;11690;51.716;23.066;2023-12-14T02:33:42;49.20;;;16.33;;
23044;SDS011;11690;51.716;23.066;2023-12-14T02:36:09;46.13;;;16.13;;
23044;SDS011;11690;51.716;23.066;2023-12-14T02:38:36;49.40;;;16.20;;
23044;SDS011;11690;51.716;23.066;2023-12-14T02:41:04;44.20;;;15.30;;
23044;SDS011;11690;51.716;23.066;2023-12-14T02:43:31;42.17;;;15.27;;
23044;SDS011;11690;51.716;23.066;2023-12-14T02:45:58;44.53;;;14.37;;
23044;SDS011;11690;51.716;23.066;2023-12-14T02:48:29;51.13;;;16.97;;
23044;SDS011;11690;51.716;23.066;2023-12-14T02:50:56;54.30;;;16.20;;
23044;SDS011;11690;51.716;23.066;2023-12-14T02:53:24;50.57;;;16.37;;
23044;SDS011;11690;51.716;23.066;2023-12-14T02:55:51;46.07;;;16.73;;
23044;SDS011;11690;51.716;23.066;2023-12-14T02:58:18;53.07;;;16.77;;
23044;SDS011;11690;51.716;23.066;2023-12-14T03:00:45;43.93;;;16.33;;
23044;SDS011;11690;51.716;23.066;2023-12-14T03:03:13;44.23;;;15.90;;
23044;SDS011;11690;51.716;23.066;2023-12-14T03:05:40;46.93;;;16.07;;
23044;SDS011;11690;51.716;23.066;2023-12-14T03:08:07;42.33;;;15.27;;
23044;SDS011;11690;51.716;23.066;2023-12-14T03:10:34;41.67;;;15.80;;
23044;SDS011;11690;51.716;23.066;2023-12-14T03:13:01;47.07;;;15.53;;
23044;SDS011;11690;51.716;23.066;2023-12-14T03:15:28;44.37;;;14.80;;
23044;SDS011;11690;51.716;23.066;2023-12-14T03:17:56;48.50;;;15.80;;
23044;SDS011;11690;51.716;23.066;2023-12-14T03:20:23;45.93;;;15.03;;
23044;SDS011;11690;51.716;23.066;2023-12-14T03:22:50;40.30;;;14.93;;
23044;SDS011;11690;51.716;23.066;2023-12-14T03:25:17;50.80;;;16.67;;
23044;SDS011;11690;51.716;23.066;2023-12-14T03:27:48;49.23;;;16.27;;
23044;SDS011;11690;51.716;23.066;2023-12-14T03:30:15;39.93;;;14.27;;
23044;SDS011;11690;51.716;23.066;2023-12-14T03:32:42;47.83;;;15.03;;
23044;SDS011;11690;51.716;23.066;2023-12-14T03:35:09;48.37;;;15.40;;
23044;SDS011;11690;51.716;23.066;2023-12-14T03:37:37;48.93;;;15.67;;
23044;SDS011;11690;51.716;23.066;2023-12-14T03:40:04;44.03;;;14.60;;
23044;SDS011;11690;51.716;23.066;2023-12-14T03:42:32;49.70;;;15.33;;
23044;SDS011;11690;51.716;23.066;2023-12-14T03:44:59;51.93;;;14.97;;
23044;SDS011;11690;51.716;23.066;2023-12-14T03:47:27;50.93;;;15.50;;
23044;SDS011;11690;51.716;23.066;2023-12-14T03:49:53;61.07;;;16.93;;
23044;SDS011;11690;51.716;23.066;2023-12-14T03:52:21;48.87;;;15.43;;
23044;SDS011;11690;51.716;23.066;2023-12-14T03:54:48;49.77;;;15.17;;
23044;SDS011;11690;51.716;23.066;2023-12-14T03:57:15;50.67;;;15.10;;
23044;SDS011;11690;51.716;23.066;2023-12-14T03:59:42;47.43;;;15.77;;
23044;SDS011;11690;51.716;23.066;2023-12-14T04:02:09;51.70;;;16.07;;
23044;SDS011;11690;51.716;23.066;2023-12-14T04:04:36;54.43;;;16.67;;
23044;SDS011;11690;51.716;23.066;2023-12-14T04:07:03;53.37;;;14.70;;
23044;SDS011;11690;51.716;23.066;2023-12-14T04:09:30;48.60;;;16.73;;
23044;SDS011;11690;51.716;23.066;2023-12-14T04:11:57;47.60;;;15.87;;
23044;SDS011;11690;51.716;23.066;2023-12-14T04:14:24;47.67;;;15.83;;
23044;SDS011;11690;51.716;23.066;2023-12-14T04:16:51;49.10;;;15.17;;
23044;SDS011;11690;51.716;23.066;2023-12-14T04:19:18;54.50;;;16.17;;
23044;SDS011;11690;51.716;23.066;2023-12-14T04:21:46;57.87;;;16.80;;
23044;SDS011;11690;51.716;23.066;2023-12-14T04:24:13;69.80;;;16.33;;
23044;SDS011;11690;51.716;23.066;2023-12-14T04:26:40;45.97;;;15.27;;
23044;SDS011;11690;51.716;23.066;2023-12-14T04:29:07;53.50;;;15.97;;
23044;SDS011;11690;51.716;23.066;2023-12-14T04:31:34;64.40;;;15.90;;
23044;SDS011;11690;51.716;23.066;2023-12-14T04:34:02;57.90;;;16.60;;
23044;SDS011;11690;51.716;23.066;2023-12-14T04:36:29;48.30;;;14.40;;
23044;SDS011;11690;51.716;23.066;2023-12-14T04:38:56;61.43;;;16.07;;
23044;SDS011;11690;51.716;23.066;2023-12-14T04:41:23;72.33;;;16.50;;
23044;SDS011;11690;51.716;23.066;2023-12-14T04:43:50;53.67;;;15.23;;
23044;SDS011;11690;51.716;23.066;2023-12-14T04:46:17;55.60;;;15.93;;
23044;SDS011;11690;51.716;23.066;2023-12-14T04:48:44;63.63;;;16.90;;
23044;SDS011;11690;51.716;23.066;2023-12-14T04:51:12;72.23;;;17.57;;
23044;SDS011;11690;51.716;23.066;2023-12-14T04:53:39;61.20;;;17.77;;
23044;SDS011;11690;51.716;23.066;2023-12-14T04:56:10;79.87;;;21.37;;
23044;SDS011;11690;51.716;23.066;2023-12-14T04:58:38;66.17;;;20.83;;
23044;SDS011;11690;51.716;23.066;2023-12-14T05:01:06;85.83;;;22.03;;
23044;SDS011;11690;51.716;23.066;2023-12-14T05:03:34;102.83;;;24.23;;
23044;SDS011;11690;51.716;23.066;2023-12-14T05:06:02;75.23;;;17.47;;
23044;SDS011;11690;51.716;23.066;2023-12-14T05:08:29;69.80;;;15.17;;
23044;SDS011;11690;51.716;23.066;2023-12-14T05:10:56;61.53;;;15.50;;
23044;SDS011;11690;51.716;23.066;2023-12-14T05:13:23;64.20;;;15.53;;
23044;SDS011;11690;51.716;23.066;2023-12-14T05:15:51;68.50;;;17.27;;
23044;SDS011;11690;51.716;23.066;2023-12-14T05:18:18;75.80;;;15.33;;
23044;SDS011;11690;51.716;23.066;2023-12-14T05:20:46;72.00;;;15.30;;
23044;SDS011;11690;51.716;23.066;2023-12-14T05:23:13;96.23;;;19.70;;
23044;SDS011;11690;51.716;23.066;2023-12-14T05:25:41;85.30;;;21.53;;
23044;SDS011;11690;51.716;23.066;2023-12-14T05:28:08;84.10;;;19.73;;
23044;SDS011;11690;51.716;23.066;2023-12-14T05:30:35;70.00;;;16.33;;
23044;SDS011;11690;51.716;23.066;2023-12-14T05:33:02;87.17;;;16.57;;
23044;SDS011;11690;51.716;23.066;2023-12-14T05:35:30;76.73;;;16.07;;
23044;SDS011;11690;51.716;23.066;2023-12-14T05:37:57;104.33;;;15.93;;
23044;SDS011;11690;51.716;23.066;2023-12-14T05:40:24;92.13;;;16.13;;
23044;SDS011;11690;51.716;23.066;2023-12-14T05:42:51;80.77;;;15.27;;
23044;SDS011;11690;51.716;23.066;2023-12-14T05:45:18;82.77;;;15.53;;
23044;SDS011;11690;51.716;23.066;2023-12-14T05:47:45;76.67;;;15.53;;
23044;SDS011;11690;51.716;23.066;2023-12-14T05:50:13;59.30;;;14.90;;
23044;SDS011;11690;51.716;23.066;2023-12-14T05:52:40;64.33;;;15.10;;
23044;SDS011;11690;51.716;23.066;2023-12-14T05:55:11;66.73;;;15.53;;
23044;SDS011;11690;51.716;23.066;2023-12-14T05:57:38;54.03;;;15.33;;
23044;SDS011;11690;51.716;23.066;2023-12-14T06:00:05;61.17;;;17.13;;
23044;SDS011;11690;51.716;23.066;2023-12-14T06:02:34;57.17;;;15.43;;
23044;SDS011;11690;51.716;23.066;2023-12-14T06:05:03;49.73;;;13.93;;
23044;SDS011;11690;51.716;23.066;2023-12-14T06:07:31;55.30;;;15.53;;
23044;SDS011;11690;51.716;23.066;2023-12-14T06:09:58;68.90;;;15.93;;
23044;SDS011;11690;51.716;23.066;2023-12-14T06:12:25;70.37;;;15.47;;
23044;SDS011;11690;51.716;23.066;2023-12-14T06:14:53;47.87;;;15.17;;
23044;SDS011;11690;51.716;23.066;2023-12-14T06:17:20;69.70;;;14.87;;
23044;SDS011;11690;51.716;23.066;2023-12-14T06:19:47;61.67;;;15.03;;
23044;SDS011;11690;51.716;23.066;2023-12-14T06:22:14;54.53;;;14.53;;
23044;SDS011;11690;51.716;23.066;2023-12-14T06:24:41;56.93;;;16.03;;
23044;SDS011;11690;51.716;23.066;2023-12-14T06:27:08;63.07;;;15.00;;
23044;SDS011;11690;51.716;23.066;2023-12-14T06:29:35;63.43;;;15.63;;
23044;SDS011;11690;51.716;23.066;2023-12-14T06:32:02;75.67;;;20.97;;
23044;SDS011;11690;51.716;23.066;2023-12-14T06:34:30;61.90;;;16.13;;
23044;SDS011;11690;51.716;23.066;2023-12-14T06:36:57;56.80;;;15.67;;
23044;SDS011;11690;51.716;23.066;2023-12-14T06:39:26;51.20;;;15.47;;
23044;SDS011;11690;51.716;23.066;2023-12-14T06:41:53;59.33;;;14.63;;
23044;SDS011;11690;51.716;23.066;2023-12-14T06:44:23;52.17;;;15.43;;
23044;SDS011;11690;51.716;23.066;2023-12-14T06:46:53;63.43;;;16.53;;
23044;SDS011;11690;51.716;23.066;2023-12-14T06:49:21;61.00;;;15.37;;
23044;SDS011;11690;51.716;23.066;2023-12-14T06:51:48;70.00;;;17.53;;
23044;SDS011;11690;51.716;23.066;2023-12-14T06:54:15;70.43;;;16.27;;
23044;SDS011;11690;51.716;23.066;2023-12-14T06:56:42;63.13;;;15.43;;
23044;SDS011;11690;51.716;23.066;2023-12-14T06:59:09;59.60;;;16.00;;
23044;SDS011;11690;51.716;23.066;2023-12-14T07:01:36;62.07;;;16.57;;
23044;SDS011;11690;51.716;23.066;2023-12-14T07:04:03;52.47;;;14.57;;
23044;SDS011;11690;51.716;23.066;2023-12-14T07:06:30;56.70;;;15.40;;
23044;SDS011;11690;51.716;23.066;2023-12-14T07:08:58;66.77;;;16.53;;
23044;SDS011;11690;51.716;23.066;2023-12-14T07:11:25;67.63;;;16.33;;
23044;SDS011;11690;51.716;23.066;2023-12-14T07:13:52;64.57;;;16.67;;
23044;SDS011;11690;51.716;23.066;2023-12-14T07:16:19;71.77;;;18.33;;
23044;SDS011;11690;51.716;23.066;2023-12-14T07:18:46;76.50;;;18.03;;
23044;SDS011;11690;51.716;23.066;2023-12-14T07:21:13;73.30;;;18.37;;
23044;SDS011;11690;51.716;23.066;2023-12-14T07:23:41;72.33;;;18.10;;
23044;SDS011;11690;51.716;23.066;2023-12-14T07:26:08;59.90;;;17.90;;
23044;SDS011;11690;51.716;23.066;2023-12-14T07:28:36;65.83;;;18.20;;
23044;SDS011;11690;51.716;23.066;2023-12-14T07:31:03;83.50;;;23.03;;
23044;SDS011;11690;51.716;23.066;2023-12-14T07:33:30;87.37;;;22.40;;
23044;SDS011;11690;51.716;23.066;2023-12-14T07:35:57;77.83;;;19.43;;
23044;SDS011;11690;51.716;23.066;2023-12-14T07:38:25;69.70;;;19.63;;
23044;SDS011;11690;51.716;23.066;2023-12-14T07:40:52;76.93;;;19.43;;
23044;SDS011;11690;51.716;23.066;2023-12-14T07:43:19;84.40;;;20.50;;
23044;SDS011;11690;51.716;23.066;2023-12-14T07:45:47;92.10;;;20.87;;
23044;SDS011;11690;51.716;23.066;2023-12-14T07:48:14;84.27;;;19.80;;
23044;SDS011;11690;51.716;23.066;2023-12-14T07:50:41;88.30;;;20.57;;
23044;SDS011;11690;51.716;23.066;2023-12-14T07:53:08;82.80;;;19.93;;
23044;SDS011;11690;51.716;23.066;2023-12-14T07:55:35;90.23;;;20.50;;
23044;SDS011;11690;51.716;23.066;2023-12-14T07:58:03;95.70;;;21.10;;
23044;SDS011;11690;51.716;23.066;2023-12-14T08:00:33;84.87;;;20.20;;
23044;SDS011;11690;51.716;23.066;2023-12-14T08:03:00;82.60;;;19.77;;
23044;SDS011;11690;51.716;23.066;2023-12-14T08:05:28;92.20;;;19.97;;
23044;SDS011;11690;51.716;23.066;2023-12-14T08:07:55;90.10;;;17.93;;
23044;SDS011;11690;51.716;23.066;2023-12-14T08:10:22;75.10;;;19.27;;
23044;SDS011;11690;51.716;23.066;2023-12-14T08:12:49;86.87;;;20.03;;
23044;SDS011;11690;51.716;23.066;2023-12-14T08:15:18;78.47;;;18.07;;
23044;SDS011;11690;51.716;23.066;2023-12-14T08:17:45;70.47;;;18.70;;
23044;SDS011;11690;51.716;23.066;2023-12-14T08:20:12;79.47;;;17.87;;
23044;SDS011;11690;51.716;23.066;2023-12-14T08:22:40;73.33;;;17.77;;
23044;SDS011;11690;51.716;23.066;2023-12-14T08:25:13;63.10;;;17.47;;
23044;SDS011;11690;51.716;23.066;2023-12-14T08:27:44;73.83;;;17.20;;
23044;SDS011;11690;51.716;23.066;2023-12-14T08:30:12;77.03;;;16.87;;
23044;SDS011;11690;51.716;23.066;2023-12-14T08:32:40;72.87;;;17.70;;
23044;SDS011;11690;51.716;23.066;2023-12-14T08:35:08;72.13;;;16.83;;
23044;SDS011;11690;51.716;23.066;2023-12-14T08:37:35;68.13;;;17.77;;
23044;SDS011;11690;51.716;23.066;2023-12-14T08:40:04;60.13;;;16.43;;
23044;SDS011;11690;51.716;23.066;2023-12-14T08:42:32;56.33;;;15.40;;
23044;SDS011;11690;51.716;23.066;2023-12-14T08:45:00;62.63;;;17.20;;
23044;SDS011;11690;51.716;23.066;2023-12-14T08:47:28;53.13;;;15.80;;
23044;SDS011;11690;51.716;23.066;2023-12-14T08:49:55;53.60;;;14.70;;
23044;SDS011;11690;51.716;23.066;2023-12-14T08:52:22;50.90;;;14.67;;
23044;SDS011;11690;51.716;23.066;2023-12-14T08:54:49;51.07;;;14.93;;
23044;SDS011;11690;51.716;23.066;2023-12-14T08:57:16;46.33;;;13.60;;
23044;SDS011;11690;51.716;23.066;2023-12-14T08:59:43;55.13;;;14.97;;
23044;SDS011;11690;51.716;23.066;2023-12-14T09:02:11;51.53;;;15.10;;
23044;SDS011;11690;51.716;23.066;2023-12-14T09:04:38;41.67;;;13.87;;
23044;SDS011;11690;51.716;23.066;2023-12-14T09:07:06;38.63;;;13.20;;
23044;SDS011;11690;51.716;23.066;2023-12-14T09:09:33;51.60;;;14.70;;
23044;SDS011;11690;51.716;23.066;2023-12-14T09:12:00;49.13;;;14.80;;
23044;SDS011;11690;51.716;23.066;2023-12-14T09:14:27;49.80;;;14.47;;
23044;SDS011;11690;51.716;23.066;2023-12-14T09:16:54;38.03;;;13.20;;
23044;SDS011;11690;51.716;23.066;2023-12-14T09:19:21;44.83;;;14.63;;
23044;SDS011;11690;51.716;23.066;2023-12-14T09:21:48;57.70;;;15.20;;
23044;SDS011;11690;51.716;23.066;2023-12-14T09:24:15;55.27;;;15.97;;
23044;SDS011;11690;51.716;23.066;2023-12-14T09:26:43;52.90;;;15.37;;
23044;SDS011;11690;51.716;23.066;2023-12-14T09:29:10;36.87;;;14.13;;
23044;SDS011;11690;51.716;23.066;2023-12-14T09:31:40;44.47;;;13.47;;
23044;SDS011;11690;51.716;23.066;2023-12-14T09:34:09;40.13;;;13.40;;
23044;SDS011;11690;51.716;23.066;2023-12-14T09:36:38;52.47;;;15.30;;
23044;SDS011;11690;51.716;23.066;2023-12-14T09:39:06;54.03;;;15.57;;
23044;SDS011;11690;51.716;23.066;2023-12-14T09:41:38;49.40;;;14.70;;
23044;SDS011;11690;51.716;23.066;2023-12-14T09:44:05;53.33;;;14.37;;
23044;SDS011;11690;51.716;23.066;2023-12-14T09:46:36;47.00;;;14.37;;
23044;SDS011;11690;51.716;23.066;2023-12-14T09:49:04;57.73;;;14.83;;
23044;SDS011;11690;51.716;23.066;2023-12-14T09:51:35;51.23;;;14.13;;
23044;SDS011;11690;51.716;23.066;2023-12-14T09:54:02;55.47;;;14.30;;
23044;SDS011;11690;51.716;23.066;2023-12-14T09:56:30;57.60;;;15.17;;
23044;SDS011;11690;51.716;23.066;2023-12-14T09:58:57;44.80;;;14.73;;
23044;SDS011;11690;51.716;23.066;2023-12-14T10:01:26;47.03;;;12.73;;
23044;SDS011;11690;51.716;23.066;2023-12-14T10:04:06;48.00;;;13.17;;
23044;SDS011;11690;51.716;23.066;2023-12-14T10:06:38;37.73;;;12.67;;
23044;SDS011;11690;51.716;23.066;2023-12-14T10:09:06;45.93;;;13.13;;
23044;SDS011;11690;51.716;23.066;2023-12-14T10:11:36;43.13;;;13.00;;
23044;SDS011;11690;51.716;23.066;2023-12-14T10:14:10;48.97;;;14.40;;
23044;SDS011;11690;51.716;23.066;2023-12-14T10:16:45;48.73;;;14.20;;
23044;SDS011;11690;51.716;23.066;2023-12-14T10:19:12;49.00;;;12.97;;
23044;SDS011;11690;51.716;23.066;2023-12-14T10:21:39;46.43;;;12.50;;
23044;SDS011;11690;51.716;23.066;2023-12-14T10:24:07;41.57;;;12.17;;
23044;SDS011;11690;51.716;23.066;2023-12-14T10:26:35;49.23;;;14.70;;
23044;SDS011;11690;51.716;23.066;2023-12-14T10:29:02;56.53;;;14.67;;
23044;SDS011;11690;51.716;23.066;2023-12-14T10:31:31;49.40;;;13.90;;
23044;SDS011;11690;51.716;23.066;2023-12-14T10:34:04;56.17;;;14.67;;
23044;SDS011;11690;51.716;23.066;2023-12-14T10:36:32;50.47;;;13.53;;
23044;SDS011;11690;51.716;23.066;2023-12-14T10:39:00;42.00;;;13.07;;
23044;SDS011;11690;51.716;23.066;2023-12-14T10:41:27;40.13;;;12.73;;
23044;SDS011;11690;51.716;23.066;2023-12-14T10:43:58;40.80;;;12.50;;
23044;SDS011;11690;51.716;23.066;2023-12-14T10:46:48;57.07;;;14.57;;
23044;SDS011;11690;51.716;23.066;2023-12-14T10:49:15;51.77;;;14.97;;
23044;SDS011;11690;51.716;23.066;2023-12-14T10:51:42;52.07;;;16.57;;
23044;SDS011;11690;51.716;23.066;2023-12-14T10:54:13;77.60;;;19.87;;
23044;SDS011;11690;51.716;23.066;2023-12-14T10:56:41;64.47;;;17.17;;
23044;SDS011;11690;51.716;23.066;2023-12-14T10:59:08;70.83;;;17.97;;
23044;SDS011;11690;51.716;23.066;2023-12-14T11:01:36;58.73;;;16.27;;
23044;SDS011;11690;51.716;23.066;2023-12-14T11:04:06;66.73;;;17.77;;
23044;SDS011;11690;51.716;23.066;2023-12-14T11:06:37;54.93;;;17.63;;
23044;SDS011;11690;51.716;23.066;2023-12-14T11:09:05;68.03;;;16.83;;
23044;SDS011;11690;51.716;23.066;2023-12-14T11:14:08;59.10;;;15.33;;
23044;SDS011;11690;51.716;23.066;2023-12-14T11:16:38;44.93;;;15.17;;
23044;SDS011;11690;51.716;23.066;2023-12-14T11:24:24;54.67;;;15.40;;
23044;SDS011;11690;51.716;23.066;2023-12-14T11:26:54;54.90;;;14.53;;
23044;SDS011;11690;51.716;23.066;2023-12-14T11:29:21;51.03;;;14.90;;
23044;SDS011;11690;51.716;23.066;2023-12-14T11:31:49;44.13;;;14.43;;
23044;SDS011;11690;51.716;23.066;2023-12-14T11:34:16;44.70;;;14.90;;
23044;SDS011;11690;51.716;23.066;2023-12-14T11:36:44;47.80;;;14.83;;
23044;SDS011;11690;51.716;23.066;2023-12-14T11:39:12;43.03;;;14.00;;
23044;SDS011;11690;51.716;23.066;2023-12-14T11:41:40;48.53;;;14.70;;
23044;SDS011;11690;51.716;23.066;2023-12-14T11:44:07;48.23;;;14.03;;
23044;SDS011;11690;51.716;23.066;2023-12-14T11:46:34;41.73;;;15.13;;
23044;SDS011;11690;51.716;23.066;2023-12-14T11:49:01;38.53;;;13.63;;
23044;SDS011;11690;51.716;23.066;2023-12-14T11:51:32;45.40;;;14.83;;
23044;SDS011;11690;51.716;23.066;2023-12-14T11:54:00;41.57;;;14.03;;
23044;SDS011;11690;51.716;23.066;2023-12-14T11:56:28;38.23;;;13.97;;
23044;SDS011;11690;51.716;23.066;2023-12-14T11:58:57;40.23;;;14.57;;
23044;SDS011;11690;51.716;23.066;2023-12-14T12:01:25;42.03;;;13.53;;
23044;SDS011;11690;51.716;23.066;2023-12-14T12:03:53;43.30;;;14.60;;
23044;SDS011;11690;51.716;23.066;2023-12-14T12:06:24;44.37;;;13.00;;
23044;SDS011;11690;51.716;23.066;2023-12-14T12:08:52;37.67;;;13.80;;
23044;SDS011;11690;51.716;23.066;2023-12-14T12:11:23;32.87;;;12.43;;
23044;SDS011;11690;51.716;23.066;2023-12-14T12:13:55;37.23;;;13.00;;
23044;SDS011;11690;51.716;23.066;2023-12-14T12:16:24;41.43;;;13.77;;
23044;SDS011;11690;51.716;23.066;2023-12-14T12:18:52;32.60;;;13.30;;
23044;SDS011;11690;51.716;23.066;2023-12-14T12:21:19;38.07;;;13.40;;
23044;SDS011;11690;51.716;23.066;2023-12-14T12:23:46;39.47;;;14.67;;
23044;SDS011;11690;51.716;23.066;2023-12-14T12:26:14;48.60;;;14.57;;
23044;SDS011;11690;51.716;23.066;2023-12-14T12:28:41;44.50;;;13.37;;
23044;SDS011;11690;51.716;23.066;2023-12-14T12:31:08;32.73;;;13.03;;
23044;SDS011;11690;51.716;23.066;2023-12-14T12:33:35;32.10;;;13.10;;
23044;SDS011;11690;51.716;23.066;2023-12-14T12:36:05;36.67;;;13.07;;
23044;SDS011;11690;51.716;23.066;2023-12-14T12:38:32;37.20;;;14.90;;
23044;SDS011;11690;51.716;23.066;2023-12-14T12:41:00;38.30;;;13.93;;
23044;SDS011;11690;51.716;23.066;2023-12-14T12:43:28;31.47;;;13.07;;
23044;SDS011;11690;51.716;23.066;2023-12-14T12:45:56;32.70;;;13.03;;
23044;SDS011;11690;51.716;23.066;2023-12-14T12:48:25;35.43;;;12.30;;
23044;SDS011;11690;51.716;23.066;2023-12-14T12:50:54;32.17;;;11.97;;
23044;SDS011;11690;51.716;23.066;2023-12-14T12:53:21;24.70;;;11.93;;
23044;SDS011;11690;51.716;23.066;2023-12-14T12:55:49;28.73;;;10.73;;
23044;SDS011;11690;51.716;23.066;2023-12-14T12:58:16;30.17;;;12.17;;
23044;SDS011;11690;51.716;23.066;2023-12-14T13:00:43;24.37;;;11.47;;
23044;SDS011;11690;51.716;23.066;2023-12-14T13:03:10;25.07;;;10.90;;
23044;SDS011;11690;51.716;23.066;2023-12-14T13:05:38;21.83;;;10.20;;
23044;SDS011;11690;51.716;23.066;2023-12-14T13:08:05;25.10;;;10.47;;
23044;SDS011;11690;51.716;23.066;2023-12-14T13:10:32;22.13;;;10.07;;
23044;SDS011;11690;51.716;23.066;2023-12-14T13:12:59;19.87;;;9.07;;
23044;SDS011;11690;51.716;23.066;2023-12-14T13:15:27;19.10;;;8.73;;
23044;SDS011;11690;51.716;23.066;2023-12-14T13:17:56;17.73;;;8.97;;
23044;SDS011;11690;51.716;23.066;2023-12-14T13:20:24;18.83;;;8.83;;
23044;SDS011;11690;51.716;23.066;2023-12-14T13:22:51;17.27;;;8.00;;
23044;SDS011;11690;51.716;23.066;2023-12-14T13:25:20;14.43;;;7.57;;
23044;SDS011;11690;51.716;23.066;2023-12-14T13:27:50;19.27;;;8.60;;
23044;SDS011;11690;51.716;23.066;2023-12-14T13:30:17;18.63;;;8.57;;
23044;SDS011;11690;51.716;23.066;2023-12-14T13:32:45;15.97;;;7.63;;
23044;SDS011;11690;51.716;23.066;2023-12-14T13:35:13;14.50;;;7.37;;
23044;SDS011;11690;51.716;23.066;2023-12-14T13:37:40;15.20;;;7.47;;
23044;SDS011;11690;51.716;23.066;2023-12-14T13:40:08;12.93;;;6.80;;
23044;SDS011;11690;51.716;23.066;2023-12-14T13:42:40;15.07;;;7.70;;
23044;SDS011;11690;51.716;23.066;2023-12-14T13:45:25;14.83;;;7.57;;
23044;SDS011;11690;51.716;23.066;2023-12-14T13:47:53;14.70;;;7.83;;
23044;SDS011;11690;51.716;23.066;2023-12-14T13:50:20;17.90;;;10.77;;
23044;SDS011;11690;51.716;23.066;2023-12-14T13:52:48;18.40;;;10.27;;
23044;SDS011;11690;51.716;23.066;2023-12-14T13:55:15;13.30;;;7.57;;
23044;SDS011;11690;51.716;23.066;2023-12-14T13:57:42;18.37;;;8.87;;
23044;SDS011;11690;51.716;23.066;2023-12-14T14:00:10;15.00;;;8.03;;
23044;SDS011;11690;51.716;23.066;2023-12-14T14:02:38;18.67;;;7.80;;
23044;SDS011;11690;51.716;23.066;2023-12-14T14:05:05;17.07;;;9.13;;
23044;SDS011;11690;51.716;23.066;2023-12-14T14:07:32;15.60;;;7.67;;
23044;SDS011;11690;51.716;23.066;2023-12-14T14:10:00;17.20;;;8.77;;
23044;SDS011;11690;51.716;23.066;2023-12-14T14:12:27;26.33;;;12.03;;
23044;SDS011;11690;51.716;23.066;2023-12-14T14:14:54;58.03;;;25.50;;
23044;SDS011;11690;51.716;23.066;2023-12-14T14:17:21;16.40;;;9.13;;
23044;SDS011;11690;51.716;23.066;2023-12-14T14:19:49;14.67;;;7.20;;